sensor_id;sensor_type;location;lat;lon;timestamp;temperature;humidity
6879;DHT22;3478;51.462;7.338;2023-05-10T00:01:50;13.70;99.90
6879;DHT22;3478;51.462;7.338;2023-05-10T00:06:52;13.60;99.90
6879;DHT22;3478;51.462;7.338;2023-05-10T00:11:53;13.60;99.90
6879;DHT22;3478;51.462;7.338;2023-05-10T00:16:57;13.60;99.90
6879;DHT22;3478;51.462;7.338;2023-05-10T00:21:59;13.60;99.90
6879;DHT22;3478;51.462;7.338;2023-05-10T00:27:01;13.60;99.90
6879;DHT22;3478;51.462;7.338;2023-05-10T00:32:05;13.70;99.90
6879;DHT22;3478;51.462;7.338;2023-05-10T00:37:07;13.70;99.90
6879;DHT22;3478;51.462;7.338;2023-05-10T00:42:09;13.60;99.90
6879;DHT22;3478;51.462;7.338;2023-05-10T00:47:13;13.50;99.90
6879;DHT22;3478;51.462;7.338;2023-05-10T00:52:15;13.50;99.90
6879;DHT22;3478;51.462;7.338;2023-05-10T00:57:17;13.50;99.90
6879;DHT22;3478;51.462;7.338;2023-05-10T01:02:20;13.60;99.90
6879;DHT22;3478;51.462;7.338;2023-05-10T01:07:22;13.50;99.90
6879;DHT22;3478;51.462;7.338;2023-05-10T01:12:24;13.60;99.90
6879;DHT22;3478;51.462;7.338;2023-05-10T01:17:28;13.60;99.90
6879;DHT22;3478;51.462;7.338;2023-05-10T01:28:39;13.80;99.90
6879;DHT22;3478;51.462;7.338;2023-05-10T01:33:47;13.70;99.90
6879;DHT22;3478;51.462;7.338;2023-05-10T01:38:53;13.70;99.90
6879;DHT22;3478;51.462;7.338;2023-05-10T01:44:02;13.70;99.90
6879;DHT22;3478;51.462;7.338;2023-05-10T01:49:09;13.60;99.90
6879;DHT22;3478;51.462;7.338;2023-05-10T01:54:13;13.60;99.90
6879;DHT22;3478;51.462;7.338;2023-05-10T01:59:18;13.50;99.90
6879;DHT22;3478;51.462;7.338;2023-05-10T02:04:23;13.60;99.90
6879;DHT22;3478;51.462;7.338;2023-05-10T02:09:28;13.50;99.90
6879;DHT22;3478;51.462;7.338;2023-05-10T02:14:35;13.40;99.90
6879;DHT22;3478;51.462;7.338;2023-05-10T02:19:40;13.30;99.90
6879;DHT22;3478;51.462;7.338;2023-05-10T02:24:43;13.40;99.90
6879;DHT22;3478;51.462;7.338;2023-05-10T02:29:47;13.30;99.90
6879;DHT22;3478;51.462;7.338;2023-05-10T02:34:51;13.40;99.90
6879;DHT22;3478;51.462;7.338;2023-05-10T02:39:55;13.30;99.90
6879;DHT22;3478;51.462;7.338;2023-05-10T02:45:01;13.30;99.90
6879;DHT22;3478;51.462;7.338;2023-05-10T02:50:05;13.30;99.90
6879;DHT22;3478;51.462;7.338;2023-05-10T02:55:09;13.20;99.90
6879;DHT22;3478;51.462;7.338;2023-05-10T03:00:13;13.20;99.90
6879;DHT22;3478;51.462;7.338;2023-05-10T03:05:16;13.10;99.90
6879;DHT22;3478;51.462;7.338;2023-05-10T03:10:19;13.10;99.90
6879;DHT22;3478;51.462;7.338;2023-05-10T03:15:32;13.10;99.90
6879;DHT22;3478;51.462;7.338;2023-05-10T03:20:42;13.10;99.90
6879;DHT22;3478;51.462;7.338;2023-05-10T03:25:46;13.10;99.90
6879;DHT22;3478;51.462;7.338;2023-05-10T03:30:49;13.10;99.90
6879;DHT22;3478;51.462;7.338;2023-05-10T03:35:54;13.10;99.90
6879;DHT22;3478;51.462;7.338;2023-05-10T03:40:56;13.10;99.90
6879;DHT22;3478;51.462;7.338;2023-05-10T03:46:01;13.20;99.90
6879;DHT22;3478;51.462;7.338;2023-05-10T03:51:04;13.10;99.90
6879;DHT22;3478;51.462;7.338;2023-05-10T03:56:06;13.20;99.90
6879;DHT22;3478;51.462;7.338;2023-05-10T04:01:08;13.30;99.90
6879;DHT22;3478;51.462;7.338;2023-05-10T04:06:11;13.30;99.90
6879;DHT22;3478;51.462;7.338;2023-05-10T04:11:13;13.30;99.90
6879;DHT22;3478;51.462;7.338;2023-05-10T04:16:15;13.30;99.90
6879;DHT22;3478;51.462;7.338;2023-05-10T04:21:18;13.20;99.90
6879;DHT22;3478;51.462;7.338;2023-05-10T04:26:20;13.30;99.90
6879;DHT22;3478;51.462;7.338;2023-05-10T04:31:22;13.30;99.90
6879;DHT22;3478;51.462;7.338;2023-05-10T04:36:25;13.20;99.90
6879;DHT22;3478;51.462;7.338;2023-05-10T04:41:28;13.20;99.90
6879;DHT22;3478;51.462;7.338;2023-05-10T04:46:30;13.20;99.90
6879;DHT22;3478;51.462;7.338;2023-05-10T04:51:33;13.20;99.90
6879;DHT22;3478;51.462;7.338;2023-05-10T04:56:35;13.20;99.90
6879;DHT22;3478;51.462;7.338;2023-05-10T05:01:37;13.30;99.90
6879;DHT22;3478;51.462;7.338;2023-05-10T05:06:40;13.20;99.90
6879;DHT22;3478;51.462;7.338;2023-05-10T05:11:42;13.20;99.90
6879;DHT22;3478;51.462;7.338;2023-05-10T05:16:44;13.20;99.90
6879;DHT22;3478;51.462;7.338;2023-05-10T05:21:47;13.20;99.90
6879;DHT22;3478;51.462;7.338;2023-05-10T05:26:49;13.40;99.90
6879;DHT22;3478;51.462;7.338;2023-05-10T05:31:51;13.30;99.90
6879;DHT22;3478;51.462;7.338;2023-05-10T05:36:54;13.30;99.90
6879;DHT22;3478;51.462;7.338;2023-05-10T05:41:57;13.40;99.90
6879;DHT22;3478;51.462;7.338;2023-05-10T05:46:59;13.50;99.90
6879;DHT22;3478;51.462;7.338;2023-05-10T05:52:03;13.50;99.90
6879;DHT22;3478;51.462;7.338;2023-05-10T05:57:05;13.50;99.90
6879;DHT22;3478;51.462;7.338;2023-05-10T06:02:07;13.60;99.90
6879;DHT22;3478;51.462;7.338;2023-05-10T06:07:10;13.80;99.90
6879;DHT22;3478;51.462;7.338;2023-05-10T06:12:12;13.70;99.90
6879;DHT22;3478;51.462;7.338;2023-05-10T06:17:14;13.90;99.90
6879;DHT22;3478;51.462;7.338;2023-05-10T06:22:17;13.90;99.90
6879;DHT22;3478;51.462;7.338;2023-05-10T06:27:19;13.90;99.90
6879;DHT22;3478;51.462;7.338;2023-05-10T06:32:22;13.90;99.90
6879;DHT22;3478;51.462;7.338;2023-05-10T06:37:25;13.90;99.90
6879;DHT22;3478;51.462;7.338;2023-05-10T06:42:27;13.90;99.90
6879;DHT22;3478;51.462;7.338;2023-05-10T06:47:29;14.00;99.90
6879;DHT22;3478;51.462;7.338;2023-05-10T06:52:32;14.10;99.90
6879;DHT22;3478;51.462;7.338;2023-05-10T06:57:34;14.30;99.90
6879;DHT22;3478;51.462;7.338;2023-05-10T07:02:37;14.50;99.90
6879;DHT22;3478;51.462;7.338;2023-05-10T07:07:40;14.60;99.90
6879;DHT22;3478;51.462;7.338;2023-05-10T07:12:42;14.50;99.90
6879;DHT22;3478;51.462;7.338;2023-05-10T07:17:44;14.50;99.90
6879;DHT22;3478;51.462;7.338;2023-05-10T07:22:48;14.70;99.90
6879;DHT22;3478;51.462;7.338;2023-05-10T07:27:50;15.10;99.90
6879;DHT22;3478;51.462;7.338;2023-05-10T07:32:52;15.30;99.90
6879;DHT22;3478;51.462;7.338;2023-05-10T07:37:55;15.40;99.90
6879;DHT22;3478;51.462;7.338;2023-05-10T07:42:59;15.40;99.90
6879;DHT22;3478;51.462;7.338;2023-05-10T07:48:03;15.00;99.90
6879;DHT22;3478;51.462;7.338;2023-05-10T07:53:06;15.10;99.90
6879;DHT22;3478;51.462;7.338;2023-05-10T07:58:08;14.90;99.90
6879;DHT22;3478;51.462;7.338;2023-05-10T08:03:10;15.00;99.90
6879;DHT22;3478;51.462;7.338;2023-05-10T08:08:13;15.50;99.90
6879;DHT22;3478;51.462;7.338;2023-05-10T08:13:15;15.50;99.90
6879;DHT22;3478;51.462;7.338;2023-05-10T08:18:17;15.30;99.90
6879;DHT22;3478;51.462;7.338;2023-05-10T08:23:21;15.40;99.90
6879;DHT22;3478;51.462;7.338;2023-05-10T08:28:23;15.70;99.90
6879;DHT22;3478;51.462;7.338;2023-05-10T08:33:25;15.70;99.90
6879;DHT22;3478;51.462;7.338;2023-05-10T08:38:28;15.80;99.90
6879;DHT22;3478;51.462;7.338;2023-05-10T08:43:30;15.70;99.90
6879;DHT22;3478;51.462;7.338;2023-05-10T08:48:34;15.60;99.90
6879;DHT22;3478;51.462;7.338;2023-05-10T08:53:38;15.60;99.90
6879;DHT22;3478;51.462;7.338;2023-05-10T08:58:40;15.90;99.90
6879;DHT22;3478;51.462;7.338;2023-05-10T09:03:43;16.20;99.90
6879;DHT22;3478;51.462;7.338;2023-05-10T09:08:48;16.50;99.90
6879;DHT22;3478;51.462;7.338;2023-05-10T09:13:51;16.40;99.90
6879;DHT22;3478;51.462;7.338;2023-05-10T09:18:54;16.50;99.90
6879;DHT22;3478;51.462;7.338;2023-05-10T09:23:57;16.50;99.90
6879;DHT22;3478;51.462;7.338;2023-05-10T09:29:04;16.50;99.90
6879;DHT22;3478;51.462;7.338;2023-05-10T09:34:07;16.60;99.90
6879;DHT22;3478;51.462;7.338;2023-05-10T09:39:10;16.40;99.90
6879;DHT22;3478;51.462;7.338;2023-05-10T09:44:17;16.50;99.90
6879;DHT22;3478;51.462;7.338;2023-05-10T09:49:21;16.90;99.90
6879;DHT22;3478;51.462;7.338;2023-05-10T09:54:24;17.10;99.90
6879;DHT22;3478;51.462;7.338;2023-05-10T09:59:27;17.50;99.90
6879;DHT22;3478;51.462;7.338;2023-05-10T10:04:29;17.90;99.90
6879;DHT22;3478;51.462;7.338;2023-05-10T10:09:33;17.40;99.90
6879;DHT22;3478;51.462;7.338;2023-05-10T10:14:35;17.30;99.90
6879;DHT22;3478;51.462;7.338;2023-05-10T10:19:38;16.90;99.90
6879;DHT22;3478;51.462;7.338;2023-05-10T10:24:41;16.90;99.90
6879;DHT22;3478;51.462;7.338;2023-05-10T10:30:04;16.80;99.90
6879;DHT22;3478;51.462;7.338;2023-05-10T10:35:08;17.70;99.90
6879;DHT22;3478;51.462;7.338;2023-05-10T10:40:26;18.10;99.90
6879;DHT22;3478;51.462;7.338;2023-05-10T10:45:28;17.80;99.90
6879;DHT22;3478;51.462;7.338;2023-05-10T10:50:30;17.70;99.90
6879;DHT22;3478;51.462;7.338;2023-05-10T10:55:33;17.50;99.90
6879;DHT22;3478;51.462;7.338;2023-05-10T11:00:37;17.50;99.90
6879;DHT22;3478;51.462;7.338;2023-05-10T11:05:42;17.80;99.90
6879;DHT22;3478;51.462;7.338;2023-05-10T11:10:55;17.70;99.90
6879;DHT22;3478;51.462;7.338;2023-05-10T11:16:11;17.80;99.90
6879;DHT22;3478;51.462;7.338;2023-05-10T11:21:15;17.60;99.90
6879;DHT22;3478;51.462;7.338;2023-05-10T11:26:18;17.40;99.90
6879;DHT22;3478;51.462;7.338;2023-05-10T11:31:23;17.00;99.90
6879;DHT22;3478;51.462;7.338;2023-05-10T11:36:28;17.10;99.90
6879;DHT22;3478;51.462;7.338;2023-05-10T11:41:33;17.40;99.90
6879;DHT22;3478;51.462;7.338;2023-05-10T11:46:36;17.30;99.90
6879;DHT22;3478;51.462;7.338;2023-05-10T11:51:38;17.00;99.90
6879;DHT22;3478;51.462;7.338;2023-05-10T11:56:44;17.00;99.90
6879;DHT22;3478;51.462;7.338;2023-05-10T12:01:46;16.90;99.90
6879;DHT22;3478;51.462;7.338;2023-05-10T12:06:48;17.20;99.90
6879;DHT22;3478;51.462;7.338;2023-05-10T12:11:55;17.40;99.90
6879;DHT22;3478;51.462;7.338;2023-05-10T12:16:58;17.50;99.90
6879;DHT22;3478;51.462;7.338;2023-05-10T12:22:00;17.50;99.90
6879;DHT22;3478;51.462;7.338;2023-05-10T12:27:08;17.50;99.90
6879;DHT22;3478;51.462;7.338;2023-05-10T12:32:10;17.20;99.90
6879;DHT22;3478;51.462;7.338;2023-05-10T12:37:12;17.20;99.90
6879;DHT22;3478;51.462;7.338;2023-05-10T12:42:16;17.10;99.90
6879;DHT22;3478;51.462;7.338;2023-05-10T12:47:18;17.50;99.90
6879;DHT22;3478;51.462;7.338;2023-05-10T12:52:20;18.00;99.90
6879;DHT22;3478;51.462;7.338;2023-05-10T12:57:24;18.20;99.90
6879;DHT22;3478;51.462;7.338;2023-05-10T13:02:26;18.40;99.90
6879;DHT22;3478;51.462;7.338;2023-05-10T13:07:28;19.00;99.90
6879;DHT22;3478;51.462;7.338;2023-05-10T13:12:31;19.00;99.90
6879;DHT22;3478;51.462;7.338;2023-05-10T13:17:34;19.60;99.90
6879;DHT22;3478;51.462;7.338;2023-05-10T13:22:36;19.80;99.90
6879;DHT22;3478;51.462;7.338;2023-05-10T13:27:39;19.40;99.90
6879;DHT22;3478;51.462;7.338;2023-05-10T13:32:41;19.30;99.90
6879;DHT22;3478;51.462;7.338;2023-05-10T13:37:43;19.60;99.90
6879;DHT22;3478;51.462;7.338;2023-05-10T13:42:47;19.40;99.90
6879;DHT22;3478;51.462;7.338;2023-05-10T13:47:49;20.40;99.90
6879;DHT22;3478;51.462;7.338;2023-05-10T13:52:51;21.80;99.90
6879;DHT22;3478;51.462;7.338;2023-05-10T13:57:54;22.30;99.90
6879;DHT22;3478;51.462;7.338;2023-05-10T14:02:56;22.70;99.90
6879;DHT22;3478;51.462;7.338;2023-05-10T14:07:58;22.50;99.90
6879;DHT22;3478;51.462;7.338;2023-05-10T14:13:02;21.70;99.90
6879;DHT22;3478;51.462;7.338;2023-05-10T14:18:04;23.40;97.60
6879;DHT22;3478;51.462;7.338;2023-05-10T14:23:06;24.40;96.00
6879;DHT22;3478;51.462;7.338;2023-05-10T14:28:09;24.50;92.80
6879;DHT22;3478;51.462;7.338;2023-05-10T14:33:12;24.80;90.80
6879;DHT22;3478;51.462;7.338;2023-05-10T14:38:14;23.60;90.50
6879;DHT22;3478;51.462;7.338;2023-05-10T14:43:18;24.00;90.30
6879;DHT22;3478;51.462;7.338;2023-05-10T14:48:21;26.10;83.60
6879;DHT22;3478;51.462;7.338;2023-05-10T14:53:23;26.60;80.20
6879;DHT22;3478;51.462;7.338;2023-05-10T14:58:26;26.30;75.00
6879;DHT22;3478;51.462;7.338;2023-05-10T15:03:28;25.30;81.50
6879;DHT22;3478;51.462;7.338;2023-05-10T15:08:30;26.30;79.50
6879;DHT22;3478;51.462;7.338;2023-05-10T15:13:34;26.00;75.90
6879;DHT22;3478;51.462;7.338;2023-05-10T15:18:36;25.80;75.80
6879;DHT22;3478;51.462;7.338;2023-05-10T15:23:38;24.40;78.80
6879;DHT22;3478;51.462;7.338;2023-05-10T15:28:41;24.40;80.90
6879;DHT22;3478;51.462;7.338;2023-05-10T15:33:44;24.80;84.70
6879;DHT22;3478;51.462;7.338;2023-05-10T15:38:46;24.60;79.10
6879;DHT22;3478;51.462;7.338;2023-05-10T15:43:50;23.40;85.80
6879;DHT22;3478;51.462;7.338;2023-05-10T15:48:52;23.20;88.50
6879;DHT22;3478;51.462;7.338;2023-05-10T15:53:54;22.70;89.40
6879;DHT22;3478;51.462;7.338;2023-05-10T15:58:58;22.50;89.30
6879;DHT22;3478;51.462;7.338;2023-05-10T16:04:00;22.30;90.10
6879;DHT22;3478;51.462;7.338;2023-05-10T16:09:02;21.20;92.10
6879;DHT22;3478;51.462;7.338;2023-05-10T16:14:05;19.90;95.50
6879;DHT22;3478;51.462;7.338;2023-05-10T16:19:07;19.60;97.80
6879;DHT22;3478;51.462;7.338;2023-05-10T16:24:09;19.10;99.90
6879;DHT22;3478;51.462;7.338;2023-05-10T16:29:13;19.00;99.90
6879;DHT22;3478;51.462;7.338;2023-05-10T16:34:15;18.70;99.90
6879;DHT22;3478;51.462;7.338;2023-05-10T16:39:17;18.60;99.90
6879;DHT22;3478;51.462;7.338;2023-05-10T16:44:20;18.50;99.90
6879;DHT22;3478;51.462;7.338;2023-05-10T16:49:23;18.40;99.90
6879;DHT22;3478;51.462;7.338;2023-05-10T16:54:27;18.30;99.90
6879;DHT22;3478;51.462;7.338;2023-05-10T16:59:30;18.10;99.90
6879;DHT22;3478;51.462;7.338;2023-05-10T17:04:32;18.00;99.90
6879;DHT22;3478;51.462;7.338;2023-05-10T17:09:34;17.90;99.90
6879;DHT22;3478;51.462;7.338;2023-05-10T17:14:37;17.80;99.90
6879;DHT22;3478;51.462;7.338;2023-05-10T17:19:39;17.70;99.90
6879;DHT22;3478;51.462;7.338;2023-05-10T17:24:44;17.50;99.90
6879;DHT22;3478;51.462;7.338;2023-05-10T17:29:48;17.30;99.90
6879;DHT22;3478;51.462;7.338;2023-05-10T17:34:50;16.90;99.90
6879;DHT22;3478;51.462;7.338;2023-05-10T17:39:52;16.30;99.90
6879;DHT22;3478;51.462;7.338;2023-05-10T17:44:55;16.20;99.90
6879;DHT22;3478;51.462;7.338;2023-05-10T17:49:57;15.90;99.90
6879;DHT22;3478;51.462;7.338;2023-05-10T17:54:59;15.80;99.90
6879;DHT22;3478;51.462;7.338;2023-05-10T18:00:03;15.80;99.90
6879;DHT22;3478;51.462;7.338;2023-05-10T18:05:08;15.90;99.90
6879;DHT22;3478;51.462;7.338;2023-05-10T18:10:11;15.80;99.90
6879;DHT22;3478;51.462;7.338;2023-05-10T18:15:14;15.60;99.90
6879;DHT22;3478;51.462;7.338;2023-05-10T18:20:17;15.50;99.90
6879;DHT22;3478;51.462;7.338;2023-05-10T18:25:19;15.40;99.90
6879;DHT22;3478;51.462;7.338;2023-05-10T18:30:22;15.40;99.90
6879;DHT22;3478;51.462;7.338;2023-05-10T18:35:25;15.40;99.90
6879;DHT22;3478;51.462;7.338;2023-05-10T18:40:27;15.30;99.90
6879;DHT22;3478;51.462;7.338;2023-05-10T18:45:30;15.30;99.90
6879;DHT22;3478;51.462;7.338;2023-05-10T18:50:32;15.20;99.90
6879;DHT22;3478;51.462;7.338;2023-05-10T18:55:34;15.10;99.90
6879;DHT22;3478;51.462;7.338;2023-05-10T19:00:38;14.90;99.90
6879;DHT22;3478;51.462;7.338;2023-05-10T19:05:55;15.00;99.90
6879;DHT22;3478;51.462;7.338;2023-05-10T19:11:03;14.90;99.90
6879;DHT22;3478;51.462;7.338;2023-05-10T19:16:10;14.90;99.90
6879;DHT22;3478;51.462;7.338;2023-05-10T19:21:12;14.90;99.90
6879;DHT22;3478;51.462;7.338;2023-05-10T19:26:14;14.80;99.90
6879;DHT22;3478;51.462;7.338;2023-05-10T19:31:17;14.80;99.90
6879;DHT22;3478;51.462;7.338;2023-05-10T19:36:19;14.80;99.90
6879;DHT22;3478;51.462;7.338;2023-05-10T19:41:21;14.80;99.90
6879;DHT22;3478;51.462;7.338;2023-05-10T19:46:24;14.80;99.90
6879;DHT22;3478;51.462;7.338;2023-05-10T19:51:26;14.80;99.90
6879;DHT22;3478;51.462;7.338;2023-05-10T19:56:28;14.70;99.90
6879;DHT22;3478;51.462;7.338;2023-05-10T20:01:31;14.70;99.90
6879;DHT22;3478;51.462;7.338;2023-05-10T20:06:33;14.60;99.90
6879;DHT22;3478;51.462;7.338;2023-05-10T20:11:35;14.60;99.90
6879;DHT22;3478;51.462;7.338;2023-05-10T20:16:39;14.60;99.90
6879;DHT22;3478;51.462;7.338;2023-05-10T20:21:41;14.70;99.90
6879;DHT22;3478;51.462;7.338;2023-05-10T20:26:43;14.50;99.90
6879;DHT22;3478;51.462;7.338;2023-05-10T20:31:46;14.40;99.90
6879;DHT22;3478;51.462;7.338;2023-05-10T20:36:48;14.30;99.90
6879;DHT22;3478;51.462;7.338;2023-05-10T20:41:54;14.20;99.90
6879;DHT22;3478;51.462;7.338;2023-05-10T20:46:58;14.20;99.90
6879;DHT22;3478;51.462;7.338;2023-05-10T20:52:00;14.20;99.90
6879;DHT22;3478;51.462;7.338;2023-05-10T20:57:02;14.20;99.90
6879;DHT22;3478;51.462;7.338;2023-05-10T21:02:06;14.10;99.90
6879;DHT22;3478;51.462;7.338;2023-05-10T21:07:08;14.00;99.90
6879;DHT22;3478;51.462;7.338;2023-05-10T21:12:10;14.00;99.90
6879;DHT22;3478;51.462;7.338;2023-05-10T21:17:13;14.00;99.90
6879;DHT22;3478;51.462;7.338;2023-05-10T21:22:15;14.00;99.90
6879;DHT22;3478;51.462;7.338;2023-05-10T21:27:17;14.00;99.90
6879;DHT22;3478;51.462;7.338;2023-05-10T21:32:20;13.90;99.90
6879;DHT22;3478;51.462;7.338;2023-05-10T21:37:22;13.90;99.90
6879;DHT22;3478;51.462;7.338;2023-05-10T21:42:25;14.00;99.90
6879;DHT22;3478;51.462;7.338;2023-05-10T21:47:29;13.90;99.90
6879;DHT22;3478;51.462;7.338;2023-05-10T21:52:31;13.90;99.90
6879;DHT22;3478;51.462;7.338;2023-05-10T21:57:33;13.90;99.90
6879;DHT22;3478;51.462;7.338;2023-05-10T22:02:36;13.80;99.90
6879;DHT22;3478;51.462;7.338;2023-05-10T22:07:38;13.90;99.90
6879;DHT22;3478;51.462;7.338;2023-05-10T22:12:40;13.90;99.90
6879;DHT22;3478;51.462;7.338;2023-05-10T22:17:44;13.80;99.90
6879;DHT22;3478;51.462;7.338;2023-05-10T22:22:46;13.90;99.90
6879;DHT22;3478;51.462;7.338;2023-05-10T22:27:48;13.90;99.90
6879;DHT22;3478;51.462;7.338;2023-05-10T22:32:51;13.80;99.90
6879;DHT22;3478;51.462;7.338;2023-05-10T22:37:53;13.90;99.90
6879;DHT22;3478;51.462;7.338;2023-05-10T22:42:55;13.80;99.90
6879;DHT22;3478;51.462;7.338;2023-05-10T22:47:59;13.70;99.90
6879;DHT22;3478;51.462;7.338;2023-05-10T22:53:03;13.80;99.90
6879;DHT22;3478;51.462;7.338;2023-05-10T22:58:06;13.80;99.90
6879;DHT22;3478;51.462;7.338;2023-05-10T23:03:09;13.80;99.90
6879;DHT22;3478;51.462;7.338;2023-05-10T23:08:11;13.80;99.90
6879;DHT22;3478;51.462;7.338;2023-05-10T23:13:14;13.70;99.90
6879;DHT22;3478;51.462;7.338;2023-05-10T23:18:17;13.70;99.90
6879;DHT22;3478;51.462;7.338;2023-05-10T23:23:19;13.70;99.90
6879;DHT22;3478;51.462;7.338;2023-05-10T23:28:22;13.70;99.90
6879;DHT22;3478;51.462;7.338;2023-05-10T23:33:25;13.60;99.90
6879;DHT22;3478;51.462;7.338;2023-05-10T23:38:27;13.60;99.90
6879;DHT22;3478;51.462;7.338;2023-05-10T23:43:29;13.60;99.90
6879;DHT22;3478;51.462;7.338;2023-05-10T23:48:33;13.60;99.90
6879;DHT22;3478;51.462;7.338;2023-05-10T23:53:34;13.40;99.90
6879;DHT22;3478;51.462;7.338;2023-05-10T23:58:37;13.40;99.90
